createdAt,value
2018-01-20T00:02:11.313Z,99389.39
2018-01-20T00:04:37.745Z,99393.95
2018-01-20T00:07:04.160Z,99391.66
2018-01-20T00:09:42.865Z,99392.09
2018-01-20T00:12:09.189Z,99394.13
2018-01-20T00:14:35.584Z,99391.02
2018-01-20T00:17:02.944Z,99394.31
2018-01-20T00:19:29.329Z,99390.08
2018-01-20T00:21:55.756Z,99390.55
2018-01-20T00:24:22.262Z,99387.47
2018-01-20T00:26:50.573Z,99390.50
2018-01-20T00:29:16.956Z,99394.20
2018-01-20T00:31:43.406Z,99396.27
2018-01-20T00:34:09.814Z,99401.03
2018-01-20T00:36:36.173Z,99392.39
2018-01-20T00:39:02.716Z,99389.23
2018-01-20T00:41:29.110Z,99381.82
2018-01-20T00:43:55.512Z,99375.30
2018-01-20T00:46:21.981Z,99370.65
2018-01-20T00:48:48.414Z,99375.73
2018-01-20T00:51:14.802Z,99365.21
2018-01-20T00:53:41.241Z,99360.25
2018-01-20T00:56:07.665Z,99358.72
2018-01-20T00:58:34.036Z,99357.33
2018-01-20T01:01:00.435Z,99354.41
2018-01-20T01:03:26.788Z,99367.22
2018-01-20T01:05:53.173Z,99355.68
2018-01-20T01:08:19.632Z,99364.72
2018-01-20T01:10:46.041Z,99359.41
2018-01-20T01:13:12.465Z,99356.94
2018-01-20T01:15:38.925Z,99353.47
2018-01-20T01:18:05.373Z,99352.73
2018-01-20T01:20:31.849Z,99350.00
2018-01-20T01:22:58.354Z,99359.52
2018-01-20T01:25:24.708Z,99349.88
2018-01-20T01:27:51.101Z,99365.36
2018-01-20T01:30:17.549Z,99365.52
2018-01-20T01:32:43.961Z,99380.05
2018-01-20T01:35:10.362Z,99379.12
2018-01-20T01:37:36.753Z,99375.39
2018-01-20T01:40:03.189Z,99373.62
2018-01-20T01:42:29.649Z,99365.11
2018-01-20T01:44:56.021Z,99377.56
2018-01-20T01:47:22.449Z,99373.73
2018-01-20T01:49:48.893Z,99369.98
2018-01-20T01:52:15.325Z,99367.92
2018-01-20T01:54:41.782Z,99370.13
2018-01-20T01:57:08.209Z,99369.22
2018-01-20T01:59:34.632Z,99373.80
2018-01-20T02:02:01.057Z,99362.31
2018-01-20T02:04:27.477Z,99358.23
2018-01-20T02:06:53.888Z,99358.97
2018-01-20T02:09:20.300Z,99359.63
2018-01-20T02:11:46.741Z,99354.52
2018-01-20T02:14:13.168Z,99360.20
2018-01-20T02:16:39.534Z,99349.77
2018-01-20T02:19:05.914Z,99357.34
2018-01-20T02:21:32.329Z,99339.76
2018-01-20T02:23:58.770Z,99340.09
2018-01-20T02:26:25.596Z,99333.52
2018-01-20T02:28:52.025Z,99344.72
2018-01-20T02:31:18.431Z,99340.89
2018-01-20T02:33:44.841Z,99338.41
2018-01-20T02:36:11.333Z,99349.44
2018-01-20T02:38:37.730Z,99342.45
2018-01-20T02:41:04.117Z,99345.11
2018-01-20T02:43:30.528Z,99344.72
2018-01-20T02:45:56.904Z,99343.64
2018-01-20T02:48:23.320Z,99347.42
2018-01-20T02:50:49.802Z,99351.22
2018-01-20T02:53:16.205Z,99360.52
2018-01-20T02:55:42.657Z,99361.05
2018-01-20T02:58:09.105Z,99365.00
2018-01-20T03:00:35.538Z,99360.69
2018-01-20T03:03:01.941Z,99359.56
2018-01-20T03:05:28.380Z,99357.81
2018-01-20T03:07:54.849Z,99352.80
2018-01-20T03:10:21.229Z,99356.85
2018-01-20T03:12:48.368Z,99353.23
2018-01-20T03:15:14.812Z,99345.48
2018-01-20T03:17:41.208Z,99333.88
2018-01-20T03:20:07.637Z,99333.02
2018-01-20T03:22:34.049Z,99331.25
2018-01-20T03:25:00.433Z,99332.77
2018-01-20T03:27:26.848Z,99341.47
2018-01-20T03:29:53.235Z,99341.95
2018-01-20T03:32:19.609Z,99346.66
2018-01-20T03:34:46.057Z,99344.69
2018-01-20T03:37:12.473Z,99352.63
2018-01-20T03:39:38.889Z,99347.16
2018-01-20T03:42:05.281Z,99347.64
2018-01-20T03:44:31.789Z,99342.45
2018-01-20T03:46:58.224Z,99354.30
2018-01-20T03:49:24.692Z,99349.44
2018-01-20T03:51:51.046Z,99348.62
2018-01-20T03:54:17.437Z,99341.97
2018-01-20T03:56:43.864Z,99343.20
2018-01-20T03:59:10.273Z,99332.46
2018-01-20T04:01:36.688Z,99330.92
2018-01-20T04:04:03.125Z,99333.00
2018-01-20T04:06:29.598Z,99322.58
2018-01-20T04:08:55.976Z,99341.17
2018-01-20T04:11:22.376Z,99345.73
2018-01-20T04:13:48.773Z,99351.44
2018-01-20T04:16:15.164Z,99359.34
2018-01-20T04:18:41.576Z,99360.69
2018-01-20T04:21:07.953Z,99361.66
2018-01-20T04:23:34.313Z,99356.37
2018-01-20T04:26:00.793Z,99358.89
2018-01-20T04:28:27.231Z,99354.89
2018-01-20T04:30:53.621Z,99358.02
2018-01-20T04:33:20.071Z,99355.16
2018-01-20T04:35:46.453Z,99352.19
2018-01-20T04:38:12.898Z,99348.38
2018-01-20T04:40:39.333Z,99349.79
2018-01-20T04:43:05.773Z,99348.35
2018-01-20T04:45:32.203Z,99346.33
2018-01-20T04:47:58.573Z,99354.12
2018-01-20T04:50:24.949Z,99356.31
2018-01-20T04:52:51.317Z,99363.84
2018-01-20T04:55:17.833Z,99352.99
2018-01-20T04:57:44.197Z,99344.30
2018-01-20T05:00:10.582Z,99353.52
2018-01-20T05:02:37.053Z,99354.39
2018-01-20T05:05:03.509Z,99349.64
2018-01-20T05:07:29.857Z,99355.45
2018-01-20T05:09:56.240Z,99354.20
2018-01-20T05:12:22.637Z,99359.39
2018-01-20T05:14:49.080Z,99361.46
2018-01-20T05:17:15.482Z,99366.07
2018-01-20T05:19:41.915Z,99371.79
2018-01-20T05:22:08.316Z,99364.72
2018-01-20T05:24:34.719Z,99357.42
2018-01-20T05:27:01.397Z,99346.09
2018-01-20T05:29:27.862Z,99341.77
2018-01-20T05:31:54.240Z,99341.30
2018-01-20T05:34:20.617Z,99335.39
2018-01-20T05:36:47.091Z,99342.02
2018-01-20T05:39:13.484Z,99344.22
2018-01-20T05:41:39.889Z,99351.42
2018-01-20T05:44:06.299Z,99353.63
2018-01-20T05:46:32.837Z,99347.69
2018-01-20T05:48:59.249Z,99346.61
2018-01-20T05:51:25.631Z,99342.59
2018-01-20T05:53:52.011Z,99347.91
2018-01-20T05:56:18.416Z,99346.67
2018-01-20T05:58:44.818Z,99338.30
2018-01-20T06:01:11.261Z,99348.34
2018-01-20T06:03:37.701Z,99344.89
2018-01-20T06:06:04.102Z,99353.53
2018-01-20T06:08:30.518Z,99350.61
2018-01-20T06:10:56.944Z,99350.08
2018-01-20T06:13:23.441Z,99350.60
2018-01-20T06:15:49.790Z,99358.67
2018-01-20T06:18:16.198Z,99369.48
2018-01-20T06:20:42.609Z,99365.62
2018-01-20T06:23:09.012Z,99363.15
2018-01-20T06:25:35.449Z,99368.52
2018-01-20T06:28:01.854Z,99377.40
2018-01-20T06:30:28.353Z,99375.15
2018-01-20T06:32:54.702Z,99369.53
2018-01-20T06:35:21.121Z,99371.39
2018-01-20T06:37:47.577Z,99369.70
2018-01-20T06:40:13.967Z,99367.44
2018-01-20T06:42:40.373Z,99372.84
2018-01-20T06:45:06.856Z,99370.41
2018-01-20T06:47:33.241Z,99364.51
2018-01-20T06:49:59.709Z,99366.75
2018-01-20T06:52:26.105Z,99376.64
2018-01-20T06:54:52.480Z,99382.80
2018-01-20T06:57:18.868Z,99384.91
2018-01-20T06:59:45.311Z,99375.75
2018-01-20T07:02:11.702Z,99376.97
2018-01-20T07:04:38.073Z,99376.11
2018-01-20T07:07:04.501Z,99368.41
2018-01-20T07:09:30.917Z,99361.67
2018-01-20T07:11:57.297Z,99364.30
2018-01-20T07:14:23.653Z,99375.55
2018-01-20T07:16:50.136Z,99386.70
2018-01-20T07:19:16.553Z,99402.12
2018-01-20T07:21:43.006Z,99399.15
2018-01-20T07:24:09.376Z,99398.16
2018-01-20T07:26:35.753Z,99392.52
2018-01-20T07:29:09.264Z,99397.34
2018-01-20T07:31:35.816Z,99392.91
2018-01-20T07:34:02.242Z,99393.94
2018-01-20T07:36:28.665Z,99393.80
2018-01-20T07:38:55.150Z,99399.02
2018-01-20T07:41:21.542Z,99387.76
2018-01-20T07:43:47.905Z,99387.52
2018-01-20T07:46:14.318Z,99385.30
2018-01-20T07:48:40.729Z,99384.42
2018-01-20T07:51:07.205Z,99376.98
2018-01-20T07:53:33.686Z,99381.16
2018-01-20T07:56:00.046Z,99377.92
2018-01-20T07:58:26.457Z,99389.55
2018-01-20T08:00:52.898Z,99388.39
2018-01-20T08:03:19.248Z,99393.31
2018-01-20T08:05:45.669Z,99386.55
2018-01-20T08:08:12.093Z,99372.55
2018-01-20T08:10:38.624Z,99365.97
2018-01-20T08:13:05.089Z,99367.86
2018-01-20T08:15:31.721Z,99367.30
2018-01-20T08:17:58.097Z,99381.48
2018-01-20T08:20:24.449Z,99382.20
2018-01-20T08:22:50.860Z,99384.59
2018-01-20T08:25:17.221Z,99384.27
2018-01-20T08:27:43.869Z,99379.46
2018-01-20T08:30:10.258Z,99381.52
2018-01-20T08:32:36.613Z,99377.66
2018-01-20T08:35:03.069Z,99371.45
2018-01-20T08:37:29.460Z,99363.94
2018-01-20T08:39:55.869Z,99351.56
2018-01-20T08:42:22.230Z,99345.41
2018-01-20T08:44:48.612Z,99345.26
2018-01-20T08:47:15.095Z,99344.81
2018-01-20T08:49:41.481Z,99348.13
2018-01-20T08:52:07.913Z,99354.84
2018-01-20T08:54:34.297Z,99339.81
2018-01-20T08:57:00.657Z,99339.80
2018-01-20T08:59:27.105Z,99347.83
2018-01-20T09:01:53.461Z,99342.86
2018-01-20T09:04:19.856Z,99339.17
2018-01-20T09:06:46.333Z,99340.45
2018-01-20T09:09:12.679Z,99334.22
2018-01-20T09:11:39.093Z,99328.80
2018-01-20T09:14:05.593Z,99338.63
2018-01-20T09:16:31.968Z,99338.09
2018-01-20T09:18:58.337Z,99330.87
2018-01-20T09:21:24.770Z,99337.09
2018-01-20T09:23:51.125Z,99337.36
2018-01-20T09:26:17.545Z,99340.56
2018-01-20T09:28:43.980Z,99337.80
2018-01-20T09:31:10.393Z,99323.73
2018-01-20T09:33:36.755Z,99328.35
2018-01-20T09:36:03.196Z,99321.66
2018-01-20T09:38:29.605Z,99318.45
2018-01-20T09:40:56.010Z,99306.97
2018-01-20T09:43:22.377Z,99309.33
2018-01-20T09:45:48.725Z,99304.11
2018-01-20T09:48:15.157Z,99314.26
2018-01-20T09:50:41.552Z,99314.45
2018-01-20T09:53:07.969Z,99310.52
2018-01-20T09:55:34.377Z,99302.68
2018-01-20T09:58:00.760Z,99302.48
2018-01-20T10:00:27.102Z,99297.27
2018-01-20T10:02:53.504Z,99278.81
2018-01-20T10:05:19.889Z,99281.88
2018-01-20T10:07:46.281Z,99275.87
2018-01-20T10:10:12.666Z,99279.27
2018-01-20T10:12:39.065Z,99272.84
2018-01-20T10:15:05.413Z,99265.52
2018-01-20T10:17:31.765Z,99251.66
2018-01-20T10:19:58.185Z,99259.59
2018-01-20T10:22:24.541Z,99249.54
2018-01-20T10:24:50.940Z,99241.73
2018-01-20T10:27:17.325Z,99231.12
2018-01-20T10:42:49.333Z,99216.07
2018-01-20T10:45:15.721Z,99218.17
2018-01-20T10:47:42.120Z,99214.25
2018-01-20T10:50:08.534Z,99204.08
2018-01-20T10:52:34.953Z,99195.57
2018-01-20T10:55:01.435Z,99193.66
2018-01-20T10:57:27.970Z,99175.36
2018-01-20T10:59:54.349Z,99174.94
2018-01-20T11:02:20.809Z,99176.03
2018-01-20T11:04:47.205Z,99175.71
2018-01-20T11:07:13.676Z,99181.91
2018-01-20T11:09:40.137Z,99172.13
2018-01-20T11:12:06.517Z,99162.87
2018-01-20T11:14:32.900Z,99156.14
2018-01-20T11:16:59.276Z,99154.86
2018-01-20T11:19:25.733Z,99156.52
2018-01-20T11:21:52.112Z,99147.75
2018-01-20T11:24:18.617Z,99141.66
2018-01-20T11:26:45.045Z,99138.50
2018-01-20T11:29:11.417Z,99132.56
2018-01-20T11:31:37.826Z,99130.89
2018-01-20T11:34:04.244Z,99132.39
2018-01-20T11:36:30.661Z,99126.20
2018-01-20T11:38:57.304Z,99129.15
2018-01-20T11:41:23.757Z,99130.41
2018-01-20T11:43:50.331Z,99117.76
2018-01-20T11:46:16.737Z,99125.06
2018-01-20T11:48:43.244Z,99130.28
2018-01-20T11:51:09.641Z,99127.69
2018-01-20T11:53:36.021Z,99114.88
2018-01-20T11:56:02.471Z,99107.63
2018-01-20T11:58:29.016Z,99098.77
2018-01-20T12:00:55.545Z,99087.77
2018-01-20T12:03:21.981Z,99088.29
2018-01-20T12:05:48.365Z,99080.34
2018-01-20T12:08:14.743Z,99077.83
2018-01-20T12:10:41.257Z,99069.51
2018-01-20T12:13:07.636Z,99067.92
2018-01-20T12:15:34.038Z,99064.70
2018-01-20T12:18:00.409Z,99065.97
2018-01-20T12:20:26.883Z,99059.36
2018-01-20T12:22:53.266Z,99041.56
2018-01-20T12:25:19.891Z,99039.45
2018-01-20T12:27:46.326Z,99044.83
2018-01-20T12:30:12.915Z,99044.50
2018-01-20T12:32:39.302Z,99048.91
2018-01-20T12:35:05.955Z,99044.09
2018-01-20T12:37:32.359Z,99041.03
2018-01-20T12:39:58.718Z,99034.39
2018-01-20T12:42:25.186Z,99031.04
2018-01-20T12:44:51.647Z,99027.14
2018-01-20T12:47:18.018Z,99033.18
2018-01-20T12:49:44.514Z,99022.42
2018-01-20T12:52:10.934Z,99025.14
2018-01-20T12:54:37.294Z,99030.91
2018-01-20T12:57:03.679Z,99026.64
2018-01-20T12:59:30.075Z,99028.08
2018-01-20T13:01:56.454Z,99020.22
2018-01-20T13:04:23.023Z,99020.16
2018-01-20T13:06:49.390Z,99019.28
2018-01-20T13:09:15.750Z,99019.92
2018-01-20T13:11:42.208Z,99013.91
2018-01-20T13:14:08.598Z,99012.20
2018-01-20T13:16:35.004Z,99014.91
2018-01-20T13:19:01.380Z,99004.09
2018-01-20T13:21:27.766Z,99013.14
2018-01-20T13:23:54.091Z,99008.91
2018-01-20T13:26:20.450Z,99010.63
2018-01-20T13:28:46.807Z,98996.97
2018-01-20T13:31:13.191Z,98995.87
2018-01-20T13:33:39.571Z,99001.94
2018-01-20T13:36:05.967Z,98992.04
2018-01-20T13:38:32.359Z,98984.65
2018-01-20T13:40:58.723Z,98987.77
2018-01-20T13:43:25.086Z,98991.67
2018-01-20T13:45:51.558Z,98992.55
2018-01-20T13:48:17.906Z,98990.39
2018-01-20T13:50:44.268Z,98998.34
2018-01-20T13:53:10.660Z,98997.38
2018-01-20T13:55:37.000Z,98992.23
2018-01-20T13:58:03.335Z,98989.13
2018-01-20T14:00:29.776Z,98990.39
2018-01-20T14:02:56.154Z,98984.70
2018-01-20T14:05:22.523Z,98980.81
2018-01-20T14:07:49.230Z,98982.57
2018-01-20T14:10:15.607Z,98974.75
2018-01-20T14:12:42.574Z,98971.90
2018-01-20T14:15:08.935Z,98979.77
2018-01-20T14:17:35.299Z,98981.47
2018-01-20T14:20:01.643Z,98981.77
2018-01-20T14:22:28.043Z,98977.45
2018-01-20T14:24:54.392Z,98984.98
2018-01-20T14:27:20.991Z,98976.56
2018-01-20T14:29:47.490Z,98976.56
2018-01-20T14:32:13.859Z,98968.59
2018-01-20T14:34:40.195Z,98966.48
2018-01-20T14:37:06.678Z,98956.83
2018-01-20T14:39:33.116Z,98957.27
2018-01-20T14:41:59.451Z,98953.39
2018-01-20T14:44:25.831Z,98954.48
2018-01-20T14:46:52.191Z,98958.06
2018-01-20T14:49:18.633Z,98966.03
2018-01-20T14:51:45.009Z,98958.91
2018-01-20T14:54:11.462Z,98950.75
2018-01-20T14:56:37.831Z,98951.79
2018-01-20T14:59:04.231Z,98955.13
2018-01-20T15:01:30.684Z,98954.80
2018-01-20T15:03:57.116Z,98950.11
2018-01-20T15:06:23.504Z,98940.98
2018-01-20T15:08:49.878Z,98942.17
2018-01-20T15:11:16.363Z,98935.88
2018-01-20T15:13:42.745Z,98940.56
2018-01-20T15:16:09.104Z,98944.33
2018-01-20T15:18:36.583Z,98943.73
2018-01-20T15:21:02.953Z,98951.79
2018-01-20T15:23:29.375Z,98949.87
2018-01-20T15:25:55.703Z,98944.35
2018-01-20T15:28:22.044Z,98950.03
2018-01-20T15:30:48.467Z,98943.58
2018-01-20T15:33:14.843Z,98941.87
2018-01-20T15:35:41.247Z,98958.53
2018-01-20T15:38:07.589Z,98965.58
2018-01-20T15:40:33.939Z,98974.38
2018-01-20T15:43:00.292Z,98964.27
2018-01-20T15:45:26.661Z,98958.61
2018-01-20T15:47:53.078Z,98965.52
2018-01-20T15:50:19.443Z,98957.98
2018-01-20T15:52:45.791Z,98952.00
2018-01-20T15:55:12.213Z,98949.60
2018-01-20T15:57:38.645Z,98950.64
2018-01-20T16:00:05.169Z,98940.23
2018-01-20T16:02:31.518Z,98935.09
2018-01-20T16:04:57.859Z,98938.50
2018-01-20T16:07:24.255Z,98939.22
2018-01-20T16:09:50.680Z,98924.67
2018-01-20T16:12:17.057Z,98920.88
2018-01-20T16:14:43.399Z,98911.91
2018-01-20T16:17:09.739Z,98908.70
2018-01-20T16:19:36.148Z,98913.90
2018-01-20T16:22:02.495Z,98904.75
2018-01-20T16:24:28.975Z,98905.16
2018-01-20T16:26:55.347Z,98908.65
2018-01-20T16:29:21.692Z,98915.66
2018-01-20T16:31:48.064Z,98912.33
2018-01-20T16:34:14.428Z,98906.91
2018-01-20T16:36:40.835Z,98906.57
2018-01-20T16:39:07.294Z,98916.59
2018-01-20T16:41:33.625Z,98925.35
2018-01-20T16:44:00.001Z,98926.84
2018-01-20T16:46:26.424Z,98926.87
2018-01-20T16:48:52.771Z,98933.59
2018-01-20T16:51:19.211Z,98940.95
2018-01-20T16:53:45.627Z,98936.50
2018-01-20T16:56:12.035Z,98934.64
2018-01-20T16:58:38.392Z,98931.71
2018-01-20T17:01:04.760Z,98923.25
2018-01-20T17:03:31.132Z,98934.67
2018-01-20T17:05:57.549Z,98922.50
2018-01-20T17:08:23.959Z,98932.22
2018-01-20T17:10:50.417Z,98931.68
2018-01-20T17:13:16.784Z,98948.34
2018-01-20T17:15:43.188Z,98953.30
2018-01-20T17:18:09.519Z,98961.28
2018-01-20T17:20:36.047Z,98969.64
2018-01-20T17:23:02.384Z,98975.91
2018-01-20T17:25:28.748Z,98982.66
2018-01-20T17:27:55.186Z,98972.37
2018-01-20T17:30:21.524Z,98977.35
2018-01-20T17:32:47.887Z,98973.72
2018-01-20T17:35:14.303Z,98977.30
2018-01-20T17:37:40.656Z,98986.66
2018-01-20T17:40:07.036Z,99002.68
2018-01-20T17:42:33.432Z,98998.77
2018-01-20T17:44:59.836Z,99012.47
2018-01-20T17:47:26.171Z,99028.16
2018-01-20T17:49:52.560Z,99031.45
2018-01-20T17:52:18.956Z,99039.74
2018-01-20T17:54:45.390Z,99046.61
2018-01-20T17:57:11.748Z,99046.84
2018-01-20T17:59:38.120Z,99038.08
2018-01-20T18:02:04.558Z,99042.59
2018-01-20T18:04:30.955Z,99040.83
2018-01-20T18:06:57.353Z,99053.15
2018-01-20T18:09:23.715Z,99054.95
2018-01-20T18:11:50.176Z,99056.12
2018-01-20T18:14:16.701Z,99060.23
2018-01-20T18:16:43.138Z,99063.48
2018-01-20T18:19:09.603Z,99072.53
2018-01-20T18:21:35.987Z,99078.50
2018-01-20T18:24:02.411Z,99091.80
2018-01-20T18:26:28.821Z,99103.25
2018-01-20T18:28:55.332Z,99097.47
2018-01-20T18:31:21.688Z,99088.50
2018-01-20T18:33:48.087Z,99093.06
2018-01-20T18:36:14.480Z,99090.70
2018-01-20T18:38:40.862Z,99095.66
2018-01-20T18:41:07.239Z,99099.36
2018-01-20T18:43:33.595Z,99094.14
2018-01-20T18:45:59.988Z,99091.30
2018-01-20T18:48:26.343Z,99095.67
2018-01-20T18:50:52.692Z,99105.46
2018-01-20T18:53:19.091Z,99108.31
2018-01-20T18:55:45.510Z,99114.45
2018-01-20T18:58:11.891Z,99117.34
2018-01-20T19:00:38.298Z,99134.70
2018-01-20T19:03:04.643Z,99129.45
2018-01-20T19:05:31.012Z,99138.48
2018-01-20T19:07:57.407Z,99127.28
2018-01-20T19:10:23.793Z,99105.33
2018-01-20T19:12:50.184Z,99113.09
2018-01-20T19:15:16.545Z,99141.09
2018-01-20T19:17:42.931Z,99158.25
2018-01-20T19:20:09.329Z,99153.38
2018-01-20T19:22:35.684Z,99176.69
2018-01-20T19:25:02.096Z,99161.83
2018-01-20T19:27:28.432Z,99192.08
2018-01-20T19:29:54.771Z,99185.66
2018-01-20T19:32:21.140Z,99190.97
2018-01-20T19:34:47.495Z,99195.28
2018-01-20T19:37:13.855Z,99187.47
2018-01-20T19:39:40.283Z,99191.83
2018-01-20T19:42:06.712Z,99208.48
2018-01-20T19:44:33.072Z,99222.69
2018-01-20T19:46:59.439Z,99214.11
2018-01-20T19:49:25.797Z,99241.48
2018-01-20T19:51:52.328Z,99259.08
2018-01-20T19:54:18.754Z,99269.80
2018-01-20T19:56:45.079Z,99278.23
2018-01-20T19:59:11.545Z,99276.55
2018-01-20T20:01:37.919Z,99267.02
2018-01-20T20:04:04.283Z,99255.30
2018-01-20T20:06:30.703Z,99234.13
2018-01-20T20:08:57.072Z,99227.62
2018-01-20T20:11:23.407Z,99241.17
2018-01-20T20:13:49.769Z,99240.32
2018-01-20T20:16:16.270Z,99227.08
2018-01-20T20:18:42.651Z,99236.55
2018-01-20T20:21:09.084Z,99241.00
2018-01-20T20:23:35.579Z,99232.47
2018-01-20T20:26:01.980Z,99222.81
2018-01-20T20:28:28.348Z,99207.63
2018-01-20T20:30:54.734Z,99198.25
2018-01-20T20:33:21.235Z,99216.58
2018-01-20T20:35:47.712Z,99200.25
2018-01-20T20:38:14.103Z,99195.94
2018-01-20T20:40:40.475Z,99188.78
2018-01-20T20:43:06.874Z,99192.60
2018-01-20T20:45:33.343Z,99192.93
2018-01-20T20:47:59.818Z,99187.84
2018-01-20T20:50:26.181Z,99195.03
2018-01-20T20:52:52.615Z,99185.53
2018-01-20T20:55:19.022Z,99190.58
2018-01-20T20:57:45.405Z,99195.34
2018-01-20T21:00:11.765Z,99200.61
2018-01-20T21:02:38.132Z,99198.75
2018-01-20T21:05:04.685Z,99209.73
2018-01-20T21:07:31.095Z,99201.90
2018-01-20T21:09:57.514Z,99212.26
2018-01-20T21:12:23.883Z,99207.87
2018-01-20T21:14:50.235Z,99199.17
2018-01-20T21:17:16.619Z,99200.12
2018-01-20T21:19:43.126Z,99204.38
2018-01-20T21:22:09.513Z,99200.36
2018-01-20T21:24:35.943Z,99208.17
2018-01-20T21:27:02.332Z,99219.42
2018-01-20T21:29:28.683Z,99219.48
2018-01-20T21:31:55.104Z,99221.94
2018-01-20T21:34:21.489Z,99220.97
2018-01-20T21:36:47.916Z,99219.33
2018-01-20T21:39:14.334Z,99227.65
2018-01-20T21:41:40.736Z,99228.27
2018-01-20T21:44:07.122Z,99234.58
2018-01-20T21:46:33.535Z,99243.57
2018-01-20T21:48:59.990Z,99245.20
2018-01-20T21:51:26.363Z,99250.84
2018-01-20T21:53:52.807Z,99252.77
2018-01-20T21:56:19.316Z,99260.53
2018-01-20T21:58:45.750Z,99273.44
2018-01-20T22:01:12.271Z,99274.39
2018-01-20T22:03:38.680Z,99270.92
2018-01-20T22:06:05.152Z,99268.89
2018-01-20T22:08:31.571Z,99271.51
2018-01-20T22:10:58.019Z,99276.40
2018-01-20T22:13:24.472Z,99261.41
2018-01-20T22:15:50.841Z,99265.41
2018-01-20T22:18:17.422Z,99270.17
2018-01-20T22:20:43.930Z,99276.31
2018-01-20T22:23:10.286Z,99276.37
2018-01-20T22:25:36.729Z,99279.70
2018-01-20T22:28:03.187Z,99271.27
2018-01-20T22:30:29.689Z,99265.97
2018-01-20T22:32:56.328Z,99261.20
2018-01-20T22:35:22.735Z,99257.73
2018-01-20T22:37:49.099Z,99261.85
2018-01-20T22:40:15.730Z,99269.43
2018-01-20T22:42:42.147Z,99274.44
2018-01-20T22:45:08.775Z,99271.24
2018-01-20T22:47:35.439Z,99258.92
2018-01-20T22:50:01.860Z,99264.36
2018-01-20T22:52:28.202Z,99261.85
2018-01-20T22:54:54.563Z,99254.91
2018-01-20T22:57:20.983Z,99240.38
2018-01-20T22:59:47.511Z,99234.78
2018-01-20T23:02:14.071Z,99223.28
2018-01-20T23:04:40.524Z,99225.86
2018-01-20T23:07:06.956Z,99223.61
2018-01-20T23:09:33.439Z,99214.95
2018-01-20T23:11:59.815Z,99212.44
2018-01-20T23:14:26.232Z,99217.98
2018-01-20T23:16:52.611Z,99225.66
2018-01-20T23:19:19.023Z,99231.75
2018-01-20T23:21:45.459Z,99235.16
2018-01-20T23:24:11.835Z,99243.75
2018-01-20T23:26:38.285Z,99246.37
2018-01-20T23:29:04.687Z,99247.67
2018-01-20T23:31:31.084Z,99255.52
2018-01-20T23:33:57.434Z,99258.10
2018-01-20T23:36:23.873Z,99252.37
2018-01-20T23:38:50.234Z,99255.45
2018-01-20T23:41:16.766Z,99257.73
2018-01-20T23:43:43.304Z,99248.03
2018-01-20T23:46:09.660Z,99242.14
2018-01-20T23:48:36.019Z,99238.63
2018-01-20T23:51:02.436Z,99241.29
2018-01-20T23:53:28.935Z,99227.29
2018-01-20T23:55:55.314Z,99234.52
2018-01-20T23:58:21.735Z,99234.27
